< < Back
Terminal Aerodrome Forecast


Current Version              Previous Versions:   1  2  3  4  5  6  7  8  9  

Terminal Aerodrome Forecast

117
FTUS44 KMRX 282328
TAFTYS
TAF
KTYS 282328Z 2900/2924 VRB04KT P6SM SCT250
     FM291500 32006KT P6SM FEW050=

Latest METAR

526
SAUS80 KWBC 291800 RRD
MTRTYS
METAR KTYS 291753Z 33004KT 10SM FEW050 FEW060 29/16 A3000 RMK AO2 SLP146
T02890156 10300 20228 58012


USA.gov is the U.S. government's official web portal to all federal, state and local government web resources and services.